createdAt,value
2022-10-22T00:00:55.792Z,17.33
2022-10-22T00:03:23.939Z,16.90
2022-10-22T00:05:51.640Z,17.87
2022-10-22T00:08:19.627Z,17.10
2022-10-22T00:10:47.423Z,16.07
2022-10-22T00:13:15.640Z,16.30
2022-10-22T00:15:44.810Z,17.67
2022-10-22T00:18:12.500Z,17.40
2022-10-22T00:20:40.388Z,16.80
2022-10-22T00:23:08.373Z,15.93
2022-10-22T00:25:37.156Z,19.53
2022-10-22T00:28:05.279Z,17.17
2022-10-22T00:30:33.027Z,16.60
2022-10-22T00:33:02.048Z,17.27
2022-10-22T00:35:30.155Z,15.20
2022-10-22T00:37:57.830Z,16.23
2022-10-22T00:40:26.343Z,16.60
2022-10-22T00:42:54.179Z,15.37
2022-10-22T00:45:25.360Z,17.27
2022-10-22T00:48:01.094Z,16.20
2022-10-22T00:50:34.205Z,16.87
2022-10-22T00:53:03.436Z,16.33
2022-10-22T00:55:32.242Z,16.17
2022-10-22T00:58:02.595Z,15.90
2022-10-22T01:00:30.374Z,16.67
2022-10-22T01:02:59.123Z,15.37
2022-10-22T01:05:30.830Z,14.80
2022-10-22T01:07:58.923Z,15.77
2022-10-22T01:10:42.238Z,15.40
2022-10-22T01:13:23.826Z,15.70
2022-10-22T01:16:00.364Z,16.60
2022-10-22T01:18:38.191Z,15.50
2022-10-22T01:21:19.540Z,14.47
2022-10-22T01:24:07.152Z,17.13
2022-10-22T01:26:44.928Z,15.77
2022-10-22T01:29:18.181Z,14.80
2022-10-22T01:31:51.451Z,16.00
2022-10-22T01:34:20.179Z,15.43
2022-10-22T01:36:49.289Z,15.37
2022-10-22T01:39:18.543Z,16.27
2022-10-22T01:41:47.153Z,15.83
2022-10-22T01:44:30.570Z,15.83
2022-10-22T01:47:12.510Z,17.27
2022-10-22T01:49:53.552Z,16.53
2022-10-22T01:52:32.930Z,17.40
2022-10-22T01:55:10.891Z,15.70
2022-10-22T01:57:51.026Z,15.73
2022-10-22T02:00:21.461Z,18.27
2022-10-22T02:02:56.231Z,17.83
2022-10-22T02:05:29.471Z,18.57
2022-10-22T02:08:02.676Z,17.33
2022-10-22T02:10:31.937Z,20.07
2022-10-22T02:13:02.492Z,18.00
2022-10-22T02:15:34.366Z,19.10
2022-10-22T02:18:02.463Z,18.77
2022-10-22T02:20:32.966Z,18.77
2022-10-22T02:23:01.816Z,16.13
2022-10-22T02:25:33.514Z,17.40
2022-10-22T02:28:06.256Z,17.33
2022-10-22T02:30:37.317Z,18.40
2022-10-22T02:33:12.735Z,18.43
2022-10-22T02:35:42.770Z,17.43
2022-10-22T02:38:12.608Z,18.13
2022-10-22T02:40:40.536Z,18.50
2022-10-22T02:43:08.386Z,18.77
2022-10-22T02:45:38.287Z,18.73
2022-10-22T02:48:06.872Z,18.63
2022-10-22T02:50:34.581Z,18.43
2022-10-22T02:53:02.366Z,19.30
2022-10-22T02:55:30.284Z,17.83
2022-10-22T02:57:58.030Z,19.97
2022-10-22T03:00:25.792Z,19.67
2022-10-22T03:02:54.910Z,18.60
2022-10-22T03:05:22.623Z,19.33
2022-10-22T03:07:50.323Z,19.67
2022-10-22T03:10:18.240Z,20.37
2022-10-22T03:12:45.922Z,20.20
2022-10-22T03:15:14.307Z,20.40
2022-10-22T03:17:42.343Z,20.23
2022-10-22T03:20:11.677Z,20.90
2022-10-22T03:22:41.965Z,22.20
2022-10-22T03:25:13.369Z,20.67
2022-10-22T03:27:42.853Z,21.40
2022-10-22T03:30:12.245Z,21.60
2022-10-22T03:32:40.175Z,21.77
2022-10-22T03:35:08.478Z,21.43
2022-10-22T03:37:38.745Z,22.10
2022-10-22T03:40:08.950Z,22.17
2022-10-22T03:42:36.666Z,23.13
2022-10-22T03:45:05.169Z,25.57
2022-10-22T03:47:32.876Z,25.43
2022-10-22T03:50:00.552Z,23.77
2022-10-22T03:52:28.265Z,23.73
2022-10-22T03:54:57.735Z,23.27
2022-10-22T03:57:25.512Z,24.07
2022-10-22T03:59:53.299Z,23.53
2022-10-22T04:02:21.625Z,25.00
2022-10-22T04:04:49.305Z,26.70
2022-10-22T04:07:17.039Z,24.00
2022-10-22T04:09:44.776Z,24.73
2022-10-22T04:12:13.873Z,24.67
2022-10-22T04:14:41.613Z,23.47
2022-10-22T04:17:09.307Z,23.40
2022-10-22T04:19:37.106Z,23.90
2022-10-22T04:22:04.848Z,21.57
2022-10-22T04:24:33.546Z,24.00
2022-10-22T04:27:01.311Z,22.93
2022-10-22T04:29:30.382Z,22.73
2022-10-22T04:31:58.098Z,22.27
2022-10-22T04:34:28.516Z,23.77
2022-10-22T04:36:56.489Z,25.53
2022-10-22T04:39:24.318Z,23.83
2022-10-22T04:41:52.043Z,24.47
2022-10-22T04:44:19.736Z,26.20
2022-10-22T04:46:48.996Z,26.00
2022-10-22T04:49:16.704Z,23.40
2022-10-22T04:51:44.445Z,24.27
2022-10-22T04:54:12.129Z,26.20
2022-10-22T04:56:39.900Z,25.37
2022-10-22T04:59:09.636Z,27.17
2022-10-22T05:01:42.721Z,25.97
2022-10-22T05:04:15.425Z,26.50
2022-10-22T05:06:43.322Z,27.13
2022-10-22T05:09:14.816Z,27.40
2022-10-22T05:11:45.591Z,27.20
2022-10-22T05:14:14.195Z,28.40
2022-10-22T05:16:42.395Z,28.47
2022-10-22T05:19:16.717Z,29.20
2022-10-22T05:21:44.497Z,27.60
2022-10-22T05:24:12.310Z,27.93
2022-10-22T05:26:40.136Z,27.60
2022-10-22T05:29:08.277Z,27.13
2022-10-22T05:31:36.103Z,33.00
2022-10-22T05:34:03.866Z,36.50
2022-10-22T05:36:32.904Z,38.53
2022-10-22T05:39:01.092Z,30.00
2022-10-22T05:41:29.944Z,29.10
2022-10-22T05:43:58.609Z,26.33
2022-10-22T05:46:28.466Z,29.30
2022-10-22T05:48:57.795Z,27.80
2022-10-22T05:51:26.817Z,29.20
2022-10-22T05:53:57.897Z,27.83
2022-10-22T05:56:26.994Z,27.77
2022-10-22T05:58:55.189Z,28.03
2022-10-22T06:01:25.133Z,27.17
2022-10-22T06:03:55.361Z,27.67
2022-10-22T06:06:28.375Z,29.07
2022-10-22T06:09:02.313Z,31.43
2022-10-22T06:11:32.614Z,30.30
2022-10-22T06:14:02.861Z,29.13
2022-10-22T06:16:31.741Z,26.53
2022-10-22T06:19:00.952Z,25.23
2022-10-22T06:21:28.739Z,24.10
2022-10-22T06:23:58.762Z,24.10
2022-10-22T06:26:27.208Z,24.23
2022-10-22T06:28:55.886Z,24.27
2022-10-22T06:31:23.711Z,23.63
2022-10-22T06:33:51.432Z,24.97
2022-10-22T06:36:21.155Z,24.17
2022-10-22T06:38:48.847Z,22.17
2022-10-22T06:41:17.943Z,21.67
2022-10-22T06:43:47.497Z,22.10
2022-10-22T06:46:19.849Z,21.10
2022-10-22T06:48:50.986Z,22.13
2022-10-22T06:51:19.292Z,21.30
2022-10-22T06:53:47.007Z,20.83
2022-10-22T06:56:19.491Z,21.83
2022-10-22T06:58:48.501Z,19.83
2022-10-22T07:01:18.769Z,19.33
2022-10-22T07:03:47.166Z,20.00
2022-10-22T07:06:16.343Z,19.57
2022-10-22T07:08:44.971Z,19.00
2022-10-22T07:11:14.493Z,20.10
2022-10-22T07:13:43.921Z,19.90
2022-10-22T07:16:12.274Z,20.13
2022-10-22T07:18:41.553Z,18.83
2022-10-22T07:21:11.004Z,19.20
2022-10-22T07:23:39.149Z,20.07
2022-10-22T07:26:08.745Z,18.97
2022-10-22T07:28:38.007Z,18.60
2022-10-22T07:31:07.696Z,17.40
2022-10-22T07:33:35.906Z,19.10
2022-10-22T07:36:06.883Z,20.43
2022-10-22T07:38:35.381Z,24.17
2022-10-22T07:41:03.259Z,19.67
2022-10-22T07:43:31.331Z,21.07
2022-10-22T07:45:59.916Z,18.13
2022-10-22T07:48:29.083Z,17.10
2022-10-22T07:50:56.893Z,21.83
2022-10-22T07:53:24.721Z,29.20
2022-10-22T07:55:53.440Z,12.63
2022-10-22T07:58:22.250Z,19.98
2022-10-22T08:00:51.002Z,9.15
2022-10-22T08:03:19.756Z,8.88
2022-10-22T08:05:49.289Z,8.60
2022-10-22T08:08:18.139Z,7.68
2022-10-22T08:10:47.120Z,7.45
2022-10-22T08:13:15.439Z,8.32
2022-10-22T08:18:12.753Z,7.32
2022-10-22T08:20:41.129Z,6.85
2022-10-22T08:23:10.299Z,6.95
2022-10-22T08:25:38.084Z,6.32
2022-10-22T08:28:06.113Z,7.05
2022-10-22T08:30:34.003Z,6.88
2022-10-22T08:33:01.769Z,6.88
2022-10-22T08:35:29.539Z,7.15
2022-10-22T08:37:57.705Z,6.75
2022-10-22T08:40:31.397Z,6.93
2022-10-22T08:43:14.249Z,7.57
2022-10-22T08:45:51.641Z,7.80
2022-10-22T08:48:37.334Z,7.28
2022-10-22T08:51:05.813Z,7.40
2022-10-22T08:53:43.104Z,7.05
2022-10-22T08:56:12.250Z,7.13
2022-10-22T08:58:47.263Z,7.30
2022-10-22T09:01:18.639Z,7.40
2022-10-22T09:03:53.542Z,7.40
2022-10-22T09:06:23.691Z,8.27
2022-10-22T09:08:52.696Z,7.03
2022-10-22T09:11:26.462Z,6.82
2022-10-22T09:13:57.296Z,6.90
2022-10-22T09:16:33.408Z,7.45
2022-10-22T09:19:14.034Z,7.47
2022-10-22T09:21:51.940Z,6.80
2022-10-22T09:24:33.264Z,6.68
2022-10-22T09:27:08.964Z,6.75
2022-10-22T09:29:36.667Z,5.45
2022-10-22T09:32:04.912Z,5.80
2022-10-22T09:34:32.626Z,6.00
2022-10-22T09:37:01.965Z,6.30
2022-10-22T09:39:33.501Z,5.75
2022-10-22T09:42:02.585Z,5.97
2022-10-22T09:44:30.445Z,5.38
2022-10-22T09:46:58.231Z,5.28
2022-10-22T09:49:25.989Z,5.50
2022-10-22T09:51:56.084Z,4.90
2022-10-22T09:54:26.214Z,4.93
2022-10-22T09:56:59.134Z,5.65
2022-10-22T09:59:31.793Z,5.30
2022-10-22T10:02:19.760Z,5.20
2022-10-22T10:04:56.527Z,3.97
2022-10-22T10:07:26.661Z,17.77
2022-10-22T10:09:55.525Z,5.30
2022-10-22T10:12:36.887Z,5.25
2022-10-22T10:15:19.381Z,4.50
2022-10-22T10:17:55.368Z,14.30
2022-10-22T10:20:41.906Z,5.25
2022-10-22T10:23:23.052Z,6.05
2022-10-22T10:25:58.431Z,4.97
2022-10-22T10:28:49.070Z,4.55
2022-10-22T10:31:29.282Z,3.60
2022-10-22T10:34:07.541Z,4.38
2022-10-22T10:36:45.973Z,4.93
2022-10-22T10:39:20.693Z,4.40
2022-10-22T10:41:56.229Z,4.82
2022-10-22T10:44:49.487Z,4.43
2022-10-22T10:47:30.639Z,4.63
2022-10-22T10:50:12.242Z,4.55
2022-10-22T10:52:46.295Z,4.28
2022-10-22T10:55:23.460Z,3.88
2022-10-22T10:57:59.879Z,3.85
2022-10-22T11:00:30.731Z,4.57
2022-10-22T11:03:35.357Z,3.97
2022-10-22T11:06:08.577Z,3.85
2022-10-22T11:08:41.942Z,4.22
2022-10-22T11:13:53.908Z,4.32
2022-10-22T11:16:28.125Z,3.78
2022-10-22T11:19:03.433Z,3.55
2022-10-22T11:21:37.392Z,3.92
2022-10-22T11:24:16.681Z,3.58
2022-10-22T11:26:49.055Z,4.10
2022-10-22T11:29:23.660Z,3.45
2022-10-22T11:31:55.469Z,3.63
2022-10-22T11:34:33.552Z,3.85
2022-10-22T11:37:03.993Z,4.10
2022-10-22T11:39:35.988Z,4.93
2022-10-22T11:42:07.086Z,4.88
2022-10-22T11:44:47.579Z,3.90
2022-10-22T11:47:21.388Z,4.63
2022-10-22T11:50:00.733Z,4.00
2022-10-22T11:52:40.401Z,3.65
2022-10-22T11:55:32.272Z,4.07
2022-10-22T11:58:01.866Z,4.20
2022-10-22T12:00:41.009Z,3.53
2022-10-22T12:03:18.970Z,3.95
2022-10-22T12:05:55.106Z,4.03
2022-10-22T12:08:27.736Z,3.58
2022-10-22T12:11:05.557Z,3.65
2022-10-22T12:13:43.443Z,3.75
2022-10-22T12:16:14.240Z,3.88
2022-10-22T12:18:45.668Z,3.72
2022-10-22T12:21:16.937Z,4.18
2022-10-22T12:23:46.728Z,4.03
2022-10-22T12:26:28.047Z,4.03
2022-10-22T12:28:59.701Z,4.00
2022-10-22T12:31:27.801Z,3.97
2022-10-22T12:33:58.821Z,3.97
2022-10-22T12:36:28.646Z,3.50
2022-10-22T12:38:56.733Z,4.40
2022-10-22T12:41:31.673Z,4.18
2022-10-22T12:44:03.149Z,3.72
2022-10-22T12:46:33.867Z,3.92
2022-10-22T12:49:02.728Z,4.00
2022-10-22T12:54:09.819Z,3.97
2022-10-22T12:56:38.874Z,4.38
2022-10-22T12:59:14.959Z,3.42
2022-10-22T13:01:44.401Z,3.80
2022-10-22T13:04:22.079Z,3.50
2022-10-22T13:06:52.508Z,3.25
2022-10-22T13:09:25.229Z,3.58
2022-10-22T13:11:58.263Z,3.50
2022-10-22T13:14:29.775Z,3.45
2022-10-22T13:17:12.826Z,3.45
2022-10-22T13:19:47.392Z,4.15
2022-10-22T13:22:34.760Z,3.60
2022-10-22T13:25:21.192Z,3.50
2022-10-22T13:27:50.911Z,3.53
2022-10-22T13:30:22.415Z,3.67
2022-10-22T13:32:52.180Z,3.83
2022-10-22T13:35:24.410Z,3.70
2022-10-22T13:37:53.983Z,3.38
2022-10-22T13:40:22.380Z,3.45
2022-10-22T13:42:50.043Z,3.10
2022-10-22T13:45:18.857Z,3.15
2022-10-22T13:47:54.634Z,4.10
2022-10-22T13:50:22.873Z,3.50
2022-10-22T13:52:54.519Z,3.65
2022-10-22T13:55:25.555Z,3.67
2022-10-22T13:57:56.101Z,3.53
2022-10-22T14:00:26.889Z,3.50
2022-10-22T14:02:59.108Z,3.42
2022-10-22T14:05:27.515Z,3.28
2022-10-22T14:07:57.917Z,3.13
2022-10-22T14:10:26.152Z,3.40
2022-10-22T14:12:54.158Z,3.47
2022-10-22T14:15:23.861Z,3.00
2022-10-22T14:17:56.917Z,3.78
2022-10-22T14:20:27.803Z,3.58
2022-10-22T14:22:57.263Z,3.20
2022-10-22T14:25:26.585Z,3.35
2022-10-22T14:27:54.738Z,3.47
2022-10-22T14:30:24.566Z,2.92
2022-10-22T14:32:52.547Z,3.40
2022-10-22T14:35:23.266Z,3.60
2022-10-22T14:37:51.945Z,3.63
2022-10-22T14:40:22.270Z,3.70
2022-10-22T14:42:50.265Z,3.80
2022-10-22T14:45:21.070Z,3.95
2022-10-22T14:47:48.963Z,3.40
2022-10-22T14:50:17.257Z,3.70
2022-10-22T14:52:45.788Z,4.00
2022-10-22T14:55:15.997Z,3.47
2022-10-22T14:57:45.896Z,3.40
2022-10-22T15:00:16.483Z,3.25
2022-10-22T15:02:45.166Z,3.28
2022-10-22T15:05:13.491Z,3.60
2022-10-22T15:07:41.763Z,3.50
2022-10-22T15:10:10.812Z,3.53
2022-10-22T15:12:38.677Z,3.83
2022-10-22T15:15:08.994Z,3.45
2022-10-22T15:17:36.732Z,3.67
2022-10-22T15:20:05.827Z,3.72
2022-10-22T15:22:35.603Z,4.40
2022-10-22T15:25:04.706Z,4.55
2022-10-22T15:27:32.405Z,4.53
2022-10-22T15:30:00.278Z,4.30
2022-10-22T15:32:29.788Z,4.75
2022-10-22T15:34:57.571Z,4.72
2022-10-22T15:37:25.405Z,4.47
2022-10-22T15:39:53.122Z,4.50
2022-10-22T15:42:20.937Z,4.85
2022-10-22T15:44:48.695Z,5.10
2022-10-22T15:47:16.420Z,5.00
2022-10-22T15:49:45.890Z,4.85
2022-10-22T15:52:13.673Z,4.68
2022-10-22T15:54:43.795Z,5.75
2022-10-22T15:57:11.518Z,6.35
2022-10-22T15:59:39.222Z,5.40
2022-10-22T16:02:08.111Z,4.97
2022-10-22T16:04:35.843Z,4.65
2022-10-22T16:07:05.023Z,5.25
2022-10-22T16:09:32.747Z,5.20
2022-10-22T16:12:00.616Z,5.80
2022-10-22T16:14:28.891Z,5.85
2022-10-22T16:16:57.261Z,5.85
2022-10-22T16:19:27.173Z,6.28
2022-10-22T16:21:56.777Z,6.38
2022-10-22T16:24:25.970Z,6.78
2022-10-22T16:26:53.903Z,6.82
2022-10-22T16:29:21.729Z,6.95
2022-10-22T16:31:49.615Z,6.45
2022-10-22T16:34:17.436Z,6.47
2022-10-22T16:36:45.267Z,6.35
2022-10-22T16:39:13.085Z,6.10
2022-10-22T16:41:42.238Z,7.18
2022-10-22T16:44:12.334Z,6.70
2022-10-22T16:46:40.097Z,7.60
2022-10-22T16:49:08.446Z,8.90
2022-10-22T16:51:36.610Z,7.68
2022-10-22T16:54:06.936Z,7.27
2022-10-22T16:56:37.609Z,6.90
2022-10-22T16:59:07.820Z,6.75
2022-10-22T17:01:40.326Z,7.80
2022-10-22T17:04:09.179Z,6.80
2022-10-22T17:06:37.229Z,7.43
2022-10-22T17:09:05.691Z,6.87
2022-10-22T17:11:36.356Z,6.13
2022-10-22T17:14:07.752Z,6.97
2022-10-22T17:16:35.660Z,8.67
2022-10-22T17:19:05.205Z,8.05
2022-10-22T17:21:33.989Z,8.32
2022-10-22T17:24:01.858Z,7.45
2022-10-22T17:26:30.460Z,7.43
2022-10-22T17:28:58.755Z,6.47
2022-10-22T17:31:29.837Z,6.47
2022-10-22T17:33:59.866Z,5.85
2022-10-22T17:36:33.342Z,5.78
2022-10-22T17:39:06.538Z,5.65
2022-10-22T17:41:37.271Z,6.43
2022-10-22T17:44:09.132Z,8.33
2022-10-22T17:46:39.341Z,8.67
2022-10-22T17:49:13.370Z,8.00
2022-10-22T17:51:41.689Z,7.23
2022-10-22T17:54:10.275Z,6.80
2022-10-22T17:56:40.289Z,6.80
2022-10-22T17:59:08.709Z,5.97
2022-10-22T18:01:43.483Z,6.30
2022-10-22T18:04:14.246Z,5.80
2022-10-22T18:06:42.238Z,5.97
2022-10-22T18:09:17.215Z,5.93
2022-10-22T18:11:46.852Z,5.40
2022-10-22T18:14:14.844Z,6.15
2022-10-22T18:16:44.103Z,6.28
2022-10-22T18:19:13.530Z,5.60
2022-10-22T18:21:41.626Z,6.10
2022-10-22T18:24:10.794Z,6.60
2022-10-22T18:26:38.962Z,6.50
2022-10-22T18:29:06.743Z,6.23
2022-10-22T18:31:34.439Z,6.87
2022-10-22T18:34:03.557Z,7.03
2022-10-22T18:36:31.476Z,6.83
2022-10-22T18:39:01.120Z,6.73
2022-10-22T18:41:30.325Z,6.60
2022-10-22T18:43:59.833Z,6.97
2022-10-22T18:46:28.761Z,6.37
2022-10-22T18:48:56.922Z,6.53
2022-10-22T18:51:28.388Z,7.20
2022-10-22T18:54:11.279Z,6.60
2022-10-22T18:56:44.502Z,6.57
2022-10-22T18:59:16.259Z,6.57
2022-10-22T19:01:44.019Z,6.40
2022-10-22T19:04:13.164Z,6.50
2022-10-22T19:06:45.734Z,6.70
2022-10-22T19:09:14.786Z,6.97
2022-10-22T19:11:43.872Z,7.40
2022-10-22T19:14:11.715Z,7.47
2022-10-22T19:16:39.664Z,6.20
2022-10-22T19:19:08.580Z,6.63
2022-10-22T19:21:37.686Z,6.85
2022-10-22T19:24:07.965Z,7.03
2022-10-22T19:26:36.188Z,7.28
2022-10-22T19:29:04.928Z,7.13
2022-10-22T19:31:33.143Z,7.00
2022-10-22T19:34:02.179Z,7.38
2022-10-22T19:36:31.220Z,6.97
2022-10-22T19:38:59.793Z,7.13
2022-10-22T19:41:31.490Z,7.53
2022-10-22T19:44:00.446Z,6.72
2022-10-22T19:46:30.273Z,7.60
2022-10-22T19:48:58.102Z,7.30
2022-10-22T19:51:27.892Z,7.60
2022-10-22T19:53:59.636Z,7.60
2022-10-22T19:56:29.318Z,7.83
2022-10-22T19:58:57.051Z,7.90
2022-10-22T20:01:25.137Z,7.57
2022-10-22T20:03:53.566Z,8.03
2022-10-22T20:06:21.969Z,7.53
2022-10-22T20:08:53.766Z,7.73
2022-10-22T20:11:25.867Z,8.40
2022-10-22T20:13:55.908Z,8.00
2022-10-22T20:16:26.048Z,8.07
2022-10-22T20:18:54.203Z,8.27
2022-10-22T20:21:22.668Z,7.63
2022-10-22T20:23:54.357Z,8.47
2022-10-22T20:26:23.897Z,7.93
2022-10-22T20:28:51.904Z,8.57
2022-10-22T20:31:23.011Z,8.17
2022-10-22T20:33:51.463Z,8.30
2022-10-22T20:36:21.828Z,7.10
2022-10-22T20:38:50.165Z,9.30
2022-10-22T20:41:19.506Z,8.70
2022-10-22T20:43:47.810Z,8.33
2022-10-22T20:46:19.525Z,9.80
2022-10-22T20:48:48.953Z,8.37
2022-10-22T20:51:16.790Z,8.93
2022-10-22T20:53:44.540Z,9.13
2022-10-22T20:56:13.507Z,8.73
2022-10-22T20:58:46.493Z,8.47
2022-10-22T21:01:20.430Z,8.77
2022-10-22T21:03:50.343Z,8.93
2022-10-22T21:06:20.956Z,8.73
2022-10-22T21:08:49.010Z,8.83
2022-10-22T21:11:16.888Z,10.00
2022-10-22T21:13:45.010Z,8.77
2022-10-22T21:16:14.618Z,11.33
2022-10-22T21:18:42.454Z,11.00
2022-10-22T21:21:11.701Z,9.83
2022-10-22T21:23:40.278Z,10.60
2022-10-22T21:26:08.166Z,11.23
2022-10-22T21:28:37.301Z,11.80
2022-10-22T21:31:06.742Z,11.97
2022-10-22T21:33:37.212Z,11.77
2022-10-22T21:36:06.338Z,11.10
2022-10-22T21:38:35.914Z,12.47
2022-10-22T21:41:05.995Z,14.90
2022-10-22T21:43:33.885Z,12.87
2022-10-22T21:46:07.954Z,12.90
2022-10-22T21:48:36.660Z,13.27
2022-10-22T21:51:08.518Z,13.77
2022-10-22T21:53:38.319Z,13.70
2022-10-22T21:56:07.250Z,13.97
2022-10-22T21:58:35.940Z,13.83
2022-10-22T22:01:04.572Z,13.40
2022-10-22T22:03:32.341Z,13.33
2022-10-22T22:06:01.136Z,14.93
2022-10-22T22:08:29.449Z,15.27
2022-10-22T22:11:04.211Z,14.83
2022-10-22T22:13:32.486Z,14.60
2022-10-22T22:16:01.546Z,14.43
2022-10-22T22:18:30.299Z,15.30
2022-10-22T22:20:58.324Z,14.60
2022-10-22T22:23:26.656Z,13.53
2022-10-22T22:25:54.354Z,14.77
2022-10-22T22:28:23.446Z,15.87
2022-10-22T22:30:51.227Z,15.33
2022-10-22T22:33:19.090Z,14.80
2022-10-22T22:35:46.808Z,15.83
2022-10-22T22:38:14.705Z,14.70
2022-10-22T22:40:43.232Z,14.60
2022-10-22T22:43:12.093Z,15.23
2022-10-22T22:45:41.144Z,14.40
2022-10-22T22:48:09.021Z,14.23
2022-10-22T22:50:37.157Z,15.37
2022-10-22T22:53:04.923Z,14.73
2022-10-22T22:55:32.893Z,13.63
2022-10-22T22:58:00.631Z,15.30
2022-10-22T23:00:28.470Z,15.27
2022-10-22T23:02:58.025Z,14.07
2022-10-22T23:05:25.832Z,16.10
2022-10-22T23:07:54.109Z,15.13
2022-10-22T23:10:21.941Z,15.73
2022-10-22T23:12:50.606Z,16.20
2022-10-22T23:15:18.500Z,16.80
2022-10-22T23:17:46.241Z,17.10
2022-10-22T23:20:15.366Z,17.43
2022-10-22T23:22:43.373Z,16.20
2022-10-22T23:25:11.320Z,16.13
2022-10-22T23:27:39.034Z,16.83
2022-10-22T23:30:08.054Z,16.10
2022-10-22T23:32:35.694Z,17.50
2022-10-22T23:35:03.377Z,17.57
2022-10-22T23:37:32.608Z,17.07
2022-10-22T23:40:00.322Z,17.03
2022-10-22T23:42:28.045Z,16.73
2022-10-22T23:44:55.895Z,16.20
2022-10-22T23:47:23.616Z,17.63
2022-10-22T23:49:51.294Z,17.03
2022-10-22T23:52:19.022Z,19.10
2022-10-22T23:54:49.603Z,17.30
2022-10-22T23:57:17.307Z,18.00
2022-10-22T23:59:45.071Z,16.97
